Terminal Aerodrome Forecast
Issued by NWS

Home | Current Version | Previous Version | Text Only | Print | Product List | Glossary Off
Versions: 1 2 3 4 5 6 7 8 9 10 11 12 13 14 15 16 17 18 19 20 21 22

000
FTUS42 KMHX 011721
TAFOAJ
TAF
KOAJ 011721Z 0118/0218 00000KT P6SM SKC
     FM020000 VRB02KT P6SM SCT250
     FM020900 00000KT 3SM BR SCT250
     FM021300 35004KT P6SM SKC
      AMD LTD TO CLD VIS AND WIND=

USA.gov is the U.S. government's official web portal to all federal, state and local government web resources and services.